Time;durP1;ratioP1;P1;durP2;ratioP2;P2;SDS_P1;SDS_P2;PMS_P1;PMS_P2;Temp;Humidity;BMP_temperature;BMP_pressure;BME280_temperature;BME280_humidity;BME280_pressure;Samples;Min_cycle;Max_cycle;Signal;HPM_P1;HPM_P2
2021/07/09 00:01:56;;;;;;;7.80;4.50;;;;;;;20.18;100.00;100999.27;1693672;83;20995;-60
2021/07/09 00:04:24;;;;;;;7.17;4.47;;;;;;;19.95;100.00;100992.61;1683003;83;21083;-62
2021/07/09 00:06:51;;;;;;;6.97;3.90;;;;;;;20.03;100.00;100994.92;1761489;81;21117;-62
2021/07/09 00:09:18;;;;;;;7.67;4.17;;;;;;;20.05;100.00;100995.00;1761701;79;20860;-61
2021/07/09 00:11:48;;;;;;;9.20;3.63;;;;;;;20.11;100.00;100996.71;1761803;79;21142;-60
2021/07/09 00:14:17;;;;;;;9.67;3.90;;;;;;;20.19;100.00;100996.89;1760907;79;21085;-61
2021/07/09 00:16:46;;;;;;;9.00;4.33;;;;;;;20.20;100.00;100990.59;1761296;79;21566;-64
2021/07/09 00:19:13;;;;;;;6.20;3.20;;;;;;;20.17;100.00;100990.52;1761321;81;21081;-63
2021/07/09 00:21:39;;;;;;;4.97;3.10;;;;;;;20.08;100.00;100991.90;1753051;80;21061;-63
2021/07/09 00:24:07;;;;;;;5.80;3.23;;;;;;;20.24;100.00;100993.59;1752817;81;21158;-64
2021/07/09 00:26:35;;;;;;;10.50;3.90;;;;;;;20.38;100.00;100998.44;1753067;80;21089;-62
2021/07/09 00:29:03;;;;;;;8.00;5.07;;;;;;;19.95;100.00;100993.41;1753327;80;20999;-62
2021/07/09 00:31:31;;;;;;;9.40;5.13;;;;;;;19.95;100.00;100992.09;1753840;80;21062;-62
2021/07/09 00:33:59;;;;;;;6.60;3.67;;;;;;;19.99;100.00;100993.25;1752357;81;20948;-60
2021/07/09 00:36:26;;;;;;;9.33;3.50;;;;;;;19.99;100.00;100992.44;1753576;80;21165;-61
2021/07/09 00:38:53;;;;;;;11.10;5.60;;;;;;;19.44;100.00;100996.05;1753920;80;21014;-62
2021/07/09 00:41:20;;;;;;;16.87;6.00;;;;;;;19.41;100.00;101003.90;1753275;81;21149;-61
2021/07/09 00:43:47;;;;;;;15.17;6.90;;;;;;;19.38;100.00;101004.86;1753128;80;20935;-60
2021/07/09 00:46:14;;;;;;;10.43;6.10;;;;;;;19.34;100.00;101015.59;1753376;80;22394;-62
2021/07/09 00:48:42;;;;;;;14.67;5.93;;;;;;;19.34;100.00;101011.62;1753391;80;21053;-63
2021/07/09 00:51:11;;;;;;;12.70;6.43;;;;;;;19.32;100.00;101012.34;1753171;81;21146;-64
2021/07/09 00:53:39;;;;;;;12.33;6.40;;;;;;;19.30;100.00;101011.78;1752577;81;21019;-63
2021/07/09 00:56:06;;;;;;;11.93;5.77;;;;;;;19.28;100.00;101004.57;1752285;81;21097;-61
2021/07/09 00:58:33;;;;;;;7.87;4.47;;;;;;;19.29;100.00;101010.17;1753427;81;21607;-61
2021/07/09 01:00:59;;;;;;;4.43;3.23;;;;;;;19.31;100.00;101006.77;1722925;80;21563;-61
2021/07/09 01:03:26;;;;;;;7.17;3.50;;;;;;;19.31;100.00;101007.58;1726306;81;20962;-61
2021/07/09 01:05:52;;;;;;;6.73;3.77;;;;;;;19.28;100.00;101008.05;1747081;80;20983;-60
2021/07/09 01:08:19;;;;;;;6.83;3.77;;;;;;;19.37;100.00;101009.86;1746737;81;21453;-61
2021/07/09 01:10:48;;;;;;;9.93;3.43;;;;;;;19.68;100.00;101007.55;1748178;80;20976;-61
2021/07/09 01:13:14;;;;;;;8.07;4.17;;;;;;;19.45;100.00;101011.67;1748183;80;21102;-62
2021/07/09 01:15:43;;;;;;;6.73;3.80;;;;;;;19.44;100.00;101009.27;1710964;80;21516;-61
2021/07/09 01:18:10;;;;;;;5.10;3.03;;;;;;;19.44;100.00;101006.63;1746935;82;21066;-62
2021/07/09 01:20:38;;;;;;;5.23;3.53;;;;;;;19.05;100.00;101014.50;1748045;80;21003;-61
2021/07/09 01:23:06;;;;;;;17.23;5.63;;;;;;;19.25;100.00;101013.77;1746610;80;21047;-61
2021/07/09 01:25:32;;;;;;;11.27;5.67;;;;;;;19.24;100.00;101002.87;1732711;82;21143;-59
2021/07/09 01:28:07;;;;;;;12.30;6.27;;;;;;;19.29;100.00;101003.56;1749089;80;21034;-61
2021/07/09 01:30:36;;;;;;;16.90;9.97;;;;;;;19.21;100.00;101009.95;1747724;80;21504;-61
2021/07/09 01:33:03;;;;;;;20.63;10.60;;;;;;;19.17;100.00;101016.20;1748201;80;21057;-63
2021/07/09 01:35:30;;;;;;;24.03;11.07;;;;;;;19.10;100.00;101016.78;1747688;80;20995;-63
2021/07/09 01:38:00;;;;;;;20.27;9.10;;;;;;;19.08;100.00;101020.66;1747127;82;21143;-63
2021/07/09 01:40:28;;;;;;;13.37;7.13;;;;;;;19.16;100.00;101025.13;1746998;82;21578;-63
2021/07/09 01:42:55;;;;;;;12.07;6.53;;;;;;;19.05;100.00;101027.70;1747677;82;21497;-64
2021/07/09 01:45:23;;;;;;;23.87;11.93;;;;;;;19.07;100.00;101030.44;1747020;80;20940;-62
2021/07/09 01:47:52;;;;;;;12.77;7.47;;;;;;;19.03;100.00;101027.13;1748365;80;22218;-61
2021/07/09 01:50:20;;;;;;;10.10;6.63;;;;;;;19.11;100.00;101026.32;1744819;80;21781;-61
2021/07/09 01:52:47;;;;;;;13.10;6.80;;;;;;;18.96;100.00;101024.55;1747586;81;21525;-62
2021/07/09 01:55:15;;;;;;;12.33;5.03;;;;;;;18.81;100.00;101024.91;1747565;80;21035;-61
2021/07/09 01:57:42;;;;;;;8.50;4.50;;;;;;;18.86;100.00;101028.20;1747867;82;21046;-61
2021/07/09 02:00:12;;;;;;;8.17;4.20;;;;;;;18.86;100.00;101029.02;1747120;82;20963;-61
2021/07/09 02:02:40;;;;;;;9.23;5.07;;;;;;;18.98;100.00;101030.44;1747412;82;21222;-59
2021/07/09 02:05:09;;;;;;;16.77;6.90;;;;;;;19.28;100.00;101030.52;1748166;80;21011;-61
2021/07/09 02:07:37;;;;;;;17.00;6.87;;;;;;;19.62;100.00;101019.84;1744270;80;20924;-61
2021/07/09 02:10:08;;;;;;;16.97;7.47;;;;;;;20.26;100.00;101021.42;1744513;80;20947;-61
2021/07/09 02:12:37;;;;;;;15.77;7.10;;;;;;;20.80;100.00;101017.41;1745058;80;21560;-61
2021/07/09 02:15:11;;;;;;;12.03;8.53;;;;;;;21.44;100.00;101013.40;1726447;82;21913;-61
2021/07/09 02:17:40;;;;;;;19.30;9.77;;;;;;;21.95;100.00;101017.78;1724873;81;21500;-60
2021/07/09 02:20:10;;;;;;;17.50;7.90;;;;;;;22.50;100.00;101019.76;1722395;83;20974;-61
2021/07/09 02:22:37;;;;;;;18.40;8.60;;;;;;;23.12;100.00;101012.63;1721974;83;20963;-61
2021/07/09 02:25:06;;;;;;;17.80;8.77;;;;;;;23.68;100.00;101010.60;1722538;83;21147;-62
2021/07/09 02:27:37;;;;;;;13.83;8.83;;;;;;;24.34;100.00;101009.80;1727304;83;21139;-62
2021/07/09 02:30:29;;;;;;;14.55;7.83;;;;;;;24.91;100.00;101005.61;1721994;82;21014;-62
2021/07/09 02:32:56;;;;;;;12.70;8.93;;;;;;;25.20;100.00;101007.36;1767475;80;20987;-62
2021/07/09 02:35:27;;;;;;;14.77;8.53;;;;;;;26.42;100.00;101006.12;1748766;81;21010;-61
2021/07/09 02:37:54;;;;;;;15.70;8.38;;;;;;;26.90;100.00;101006.55;1776311;80;21054;-63
2021/07/09 02:40:24;;;;;;;15.10;9.17;;;;;;;27.59;100.00;101002.18;1775520;80;21359;-64
2021/07/09 02:42:52;;;;;;;15.60;7.80;;;;;;;28.07;100.00;101002.89;1769565;80;20943;-63
2021/07/09 02:45:21;;;;;;;14.58;7.47;;;;;;;28.67;100.00;101002.58;1776594;80;20982;-61
2021/07/09 02:47:50;;;;;;;15.17;7.30;;;;;;;29.01;100.00;100998.44;1773089;80;21970;-62
2021/07/09 02:50:19;;;;;;;16.20;7.92;;;;;;;29.26;100.00;101001.33;1770431;80;22703;-64
2021/07/09 02:52:46;;;;;;;16.30;8.28;;;;;;;29.94;93.15;101004.08;1775434;80;21792;-64
2021/07/09 02:55:13;;;;;;;11.85;6.80;;;;;;;30.32;85.69;101003.98;1771316;80;21456;-63
2021/07/09 02:57:41;;;;;;;10.63;6.47;;;;;;;30.42;82.71;101005.94;1772866;80;21113;-61
2021/07/09 03:00:16;;;;;;;12.70;7.20;;;;;;;30.52;78.96;101007.06;1694461;81;21091;31
2021/07/09 03:02:43;;;;;;;13.28;7.30;;;;;;;31.92;66.56;101005.13;1763598;81;20915;-64
2021/07/09 03:05:11;;;;;;;10.18;6.83;;;;;;;31.92;66.56;101005.13;1760514;81;21129;-60
2021/07/09 03:07:38;;;;;;;12.80;6.28;;;;;;;32.44;62.71;100992.71;1761312;81;22297;-63
2021/07/09 03:10:07;;;;;;;11.78;6.85;;;;;;;33.08;57.31;100995.50;1760343;80;32511;-65
2021/07/09 03:12:35;;;;;;;12.15;6.70;;;;;;;33.55;54.06;101004.57;1763380;80;21047;-64
2021/07/09 03:15:02;;;;;;;9.53;6.47;;;;;;;34.08;51.32;100995.25;1762028;81;21032;-62
2021/07/09 03:17:29;;;;;;;12.33;6.90;;;;;;;34.56;49.25;100999.53;1761269;81;21106;-61
2021/07/09 03:19:55;;;;;;;11.65;6.72;;;;;;;34.91;46.93;100999.87;1763131;80;20955;-65
2021/07/09 03:22:24;;;;;;;12.60;7.05;;;;;;;34.87;46.46;100997.02;1761409;80;20928;-63
2021/07/09 03:24:51;;;;;;;10.05;6.40;;;;;;;34.98;45.79;100995.52;1761197;81;20947;-64
2021/07/09 03:27:18;;;;;;;10.50;7.60;;;;;;;35.46;44.34;100996.08;1761653;81;21073;-62
2021/07/09 03:29:46;;;;;;;12.43;6.87;;;;;;;35.82;43.06;101003.01;1763730;80;21030;-60
2021/07/09 03:32:13;;;;;;;9.70;6.30;;;;;;;36.26;40.77;100995.77;1753982;81;21002;-63
2021/07/09 03:34:39;;;;;;;8.53;5.67;;;;;;;36.45;39.87;100992.48;1760309;80;21010;-61
2021/07/09 03:37:06;;;;;;;8.13;5.20;;;;;;;36.43;39.21;100994.72;1763562;81;21454;-60
2021/07/09 03:39:33;;;;;;;9.10;6.05;;;;;;;36.64;38.43;100989.20;1779455;79;21523;-63
2021/07/09 03:41:59;;;;;;;9.08;5.37;;;;;;;36.85;37.58;100983.03;1778709;79;21143;-61
2021/07/09 03:44:27;;;;;;;10.20;5.80;;;;;;;37.23;37.08;100983.95;1785858;78;22309;-63
2021/07/09 03:46:54;;;;;;;11.33;5.65;;;;;;;37.49;36.88;100984.09;1783167;79;20896;-65
2021/07/09 03:49:20;;;;;;;9.65;5.92;;;;;;;37.59;36.03;100985.52;1794715;79;20938;-61
2021/07/09 03:51:47;;;;;;;8.20;4.95;;;;;;;37.89;35.92;100982.64;1794530;78;21487;-65
2021/07/09 03:54:14;;;;;;;9.00;4.97;;;;;;;38.11;35.29;100982.59;1795026;79;21250;-64
2021/07/09 03:56:43;;;;;;;9.78;6.03;;;;;;;38.20;35.12;100981.05;1794907;79;20906;-64
2021/07/09 03:59:09;;;;;;;8.83;5.40;;;;;;;38.38;34.89;100980.13;1795575;78;20982;-63
2021/07/09 04:01:37;;;;;;;9.63;5.60;;;;;;;38.72;33.95;100979.91;1791850;79;20969;-67
2021/07/09 04:04:04;;;;;;;15.13;6.95;;;;;;;38.96;33.79;100984.32;1787221;79;21302;-62
2021/07/09 04:06:31;;;;;;;9.25;5.97;;;;;;;39.22;33.05;100980.94;1790367;78;21129;-63
2021/07/09 04:08:57;;;;;;;8.88;5.83;;;;;;;39.28;33.18;100980.09;1790711;78;20930;-69
2021/07/09 04:11:24;;;;;;;10.23;6.15;;;;;;;39.68;32.36;100975.59;1790004;78;21456;-66
2021/07/09 04:13:50;;;;;;;7.62;5.87;;;;;;;39.70;31.87;100974.64;1789104;78;21034;-66
2021/07/09 04:16:16;;;;;;;13.70;6.67;;;;;;;39.89;31.77;100979.23;1759466;80;21112;-65
2021/07/09 04:18:43;;;;;;;8.63;5.95;;;;;;;39.80;31.47;100974.03;1765608;80;21139;-66
2021/07/09 04:21:09;;;;;;;10.35;5.80;;;;;;;40.00;31.35;100969.28;1791216;78;21058;-66
2021/07/09 04:23:36;;;;;;;7.20;6.08;;;;;;;40.32;30.70;100965.70;1785743;78;21024;-63
2021/07/09 04:26:03;;;;;;;8.98;6.20;;;;;;;40.81;30.27;100964.82;1789875;78;20930;-64
2021/07/09 04:28:29;;;;;;;8.60;5.35;;;;;;;40.98;29.81;100963.47;1790307;78;20965;-64
2021/07/09 04:30:56;;;;;;;8.10;6.00;;;;;;;41.42;29.16;100963.38;1790170;79;21711;-64
2021/07/09 04:33:23;;;;;;;8.95;5.75;;;;;;;41.78;28.86;100952.14;1788511;79;21065;-62
2021/07/09 04:35:50;;;;;;;9.25;6.22;;;;;;;42.00;28.09;100963.48;1787329;79;21036;-65
2021/07/09 04:38:19;;;;;;;8.58;5.60;;;;;;;42.14;27.77;100954.59;1790768;79;20878;-66
2021/07/09 04:40:46;;;;;;;9.08;5.95;;;;;;;42.33;27.79;100956.88;1789307;78;20866;-64
2021/07/09 04:43:13;;;;;;;8.55;5.67;;;;;;;42.68;27.39;100954.33;1790081;79;21153;-62
2021/07/09 04:45:41;;;;;;;9.43;5.60;;;;;;;42.82;27.12;100956.34;1789308;78;21039;-66
2021/07/09 04:48:08;;;;;;;9.25;5.97;;;;;;;42.96;26.51;100955.02;1790415;78;20990;-65
2021/07/09 04:50:34;;;;;;;10.28;5.72;;;;;;;42.72;26.59;100952.97;1789693;79;20938;-61
2021/07/09 04:53:01;;;;;;;8.25;5.75;;;;;;;41.56;27.84;100955.28;1789294;79;21021;-63
2021/07/09 04:55:28;;;;;;;8.50;6.25;;;;;;;41.46;28.18;100954.62;1789389;79;22464;-67
2021/07/09 04:57:55;;;;;;;9.80;6.37;;;;;;;40.73;28.42;100954.96;1789636;79;22197;-65
2021/07/09 05:00:21;;;;;;;9.35;5.92;;;;;;;40.30;28.78;100960.39;1790255;79;21013;-67
2021/07/09 05:02:48;;;;;;;7.00;5.20;;;;;;;40.99;28.06;100949.21;1789229;78;20922;-63
2021/07/09 05:05:15;;;;;;;7.87;5.40;;;;;;;40.74;28.49;100953.80;1790072;78;21297;-65
2021/07/09 05:07:43;;;;;;;7.83;5.17;;;;;;;40.82;29.00;100951.93;1789398;79;21085;-66
2021/07/09 05:10:10;;;;;;;7.28;3.83;;;;;;;41.14;28.28;100950.16;1790130;79;21021;-67
2021/07/09 05:12:37;;;;;;;4.58;4.05;;;;;;;41.23;27.22;100955.55;1789287;79;21480;-64
2021/07/09 05:15:05;;;;;;;4.35;3.10;;;;;;;41.02;27.53;100947.89;1789712;78;21510;-66
2021/07/09 05:17:32;;;;;;;5.78;3.75;;;;;;;40.75;27.48;100953.99;1789367;79;21743;-65
2021/07/09 05:19:59;;;;;;;4.90;3.55;;;;;;;40.51;27.75;100947.03;1789986;78;21123;-64
2021/07/09 05:22:26;;;;;;;6.00;3.83;;;;;;;40.45;28.06;100947.72;1790242;78;21590;-65
2021/07/09 05:24:54;;;;;;;6.22;3.72;;;;;;;40.23;28.49;100946.05;1790076;79;20981;-62
2021/07/09 05:27:22;;;;;;;4.62;3.80;;;;;;;40.37;28.49;100944.89;1789433;78;20917;-65
2021/07/09 05:29:49;;;;;;;6.55;4.70;;;;;;;40.31;28.67;100947.75;1788873;78;21080;-64
2021/07/09 05:32:27;;;;;;;4.28;3.50;;;;;;;40.51;28.54;100938.05;1788566;78;21140;-66
2021/07/09 05:34:54;;;;;;;5.12;3.95;;;;;;;40.72;28.53;100939.70;1785549;79;21500;-62
2021/07/09 05:37:21;;;;;;;4.83;3.90;;;;;;;40.71;28.88;100942.23;1766389;80;22361;-65
2021/07/09 05:39:48;;;;;;;6.33;4.10;;;;;;;40.83;26.77;100929.67;1766147;80;21477;-64
2021/07/09 05:42:14;;;;;;;4.58;3.80;;;;;;;40.73;27.28;100937.19;1768079;80;21050;-66
2021/07/09 05:44:42;;;;;;;6.92;4.12;;;;;;;40.60;26.40;100931.16;1764032;80;21116;-66
2021/07/09 05:47:09;;;;;;;4.30;3.87;;;;;;;40.37;26.83;100933.95;1763196;80;20863;-66
2021/07/09 05:49:35;;;;;;;4.97;3.50;;;;;;;40.23;26.57;100932.39;1766629;80;21446;-67
2021/07/09 05:52:03;;;;;;;5.08;3.95;;;;;;;40.20;27.59;100933.16;1769345;80;21000;-66
2021/07/09 05:54:31;;;;;;;5.25;3.90;;;;;;;40.58;27.74;100926.66;1767298;80;21495;-66
2021/07/09 05:56:59;;;;;;;7.70;4.10;;;;;;;40.66;26.12;100926.75;1767772;80;22237;-61
2021/07/09 05:59:25;;;;;;;5.60;3.40;;;;;;;40.46;26.79;100923.33;1767820;80;21050;-66
2021/07/09 06:01:52;;;;;;;5.87;4.10;;;;;;;40.41;28.13;100925.81;1768638;80;20931;-66
2021/07/09 06:04:19;;;;;;;4.83;3.80;;;;;;;40.59;28.21;100926.86;1761636;80;21465;-68
2021/07/09 06:06:47;;;;;;;4.45;4.05;;;;;;;41.03;26.61;100923.50;1768648;80;21023;-66
2021/07/09 06:09:13;;;;;;;7.45;3.92;;;;;;;41.23;25.84;100922.72;1764648;80;21138;-61
2021/07/09 06:11:40;;;;;;;4.15;3.75;;;;;;;41.21;25.52;100927.77;1765933;80;20980;-65
2021/07/09 06:14:07;;;;;;;4.58;3.98;;;;;;;40.79;25.72;100914.40;1767113;80;20908;-65
2021/07/09 06:16:33;;;;;;;5.42;4.17;;;;;;;40.29;26.55;100922.73;1771814;80;21004;-66
2021/07/09 06:19:00;;;;;;;5.72;3.72;;;;;;;39.91;26.66;100924.29;1770314;80;21294;-65
2021/07/09 06:21:27;;;;;;;6.28;4.35;;;;;;;39.59;27.89;100918.51;1770326;80;21155;-65
2021/07/09 06:23:54;;;;;;;7.15;3.98;;;;;;;39.88;27.81;100914.88;1771686;80;21049;-65
2021/07/09 06:26:21;;;;;;;6.70;4.60;;;;;;;40.23;27.79;100914.63;1771204;80;20967;-66
2021/07/09 06:28:48;;;;;;;9.45;4.30;;;;;;;40.59;26.85;100909.68;1771968;80;20896;-66
2021/07/09 06:31:15;;;;;;;7.50;5.47;;;;;;;40.61;27.01;100901.88;1771329;80;21018;-62
2021/07/09 06:33:41;;;;;;;5.92;4.53;;;;;;;40.29;26.60;100904.19;1771411;80;21097;-66
2021/07/09 06:36:09;;;;;;;4.28;3.60;;;;;;;39.96;27.07;100907.01;1771837;80;20958;-64
2021/07/09 06:38:37;;;;;;;5.50;4.03;;;;;;;39.75;27.31;100899.30;1766531;80;20880;-65
2021/07/09 06:41:04;;;;;;;7.58;5.67;;;;;;;39.28;28.33;100908.59;1772633;80;20986;-66
2021/07/09 06:43:30;;;;;;;5.17;4.10;;;;;;;39.03;29.56;100902.67;1769760;80;21025;-62
2021/07/09 06:45:57;;;;;;;5.80;3.75;;;;;;;38.95;29.26;100898.24;1771423;80;21179;-66
2021/07/09 06:48:23;;;;;;;9.18;5.53;;;;;;;38.58;30.66;100902.73;1771511;80;20876;-66
2021/07/09 06:50:50;;;;;;;5.62;4.53;;;;;;;39.14;29.82;100895.48;1772047;80;20979;-66
2021/07/09 06:53:16;;;;;;;4.90;4.17;;;;;;;39.24;30.33;100897.42;1772036;80;20994;-65
2021/07/09 06:55:43;;;;;;;6.20;4.35;;;;;;;40.04;28.88;100898.34;1770462;80;21095;-66
2021/07/09 06:58:10;;;;;;;7.12;4.50;;;;;;;40.43;28.38;100892.09;1771423;80;21122;-66
2021/07/09 07:00:38;;;;;;;5.62;4.20;;;;;;;40.78;27.38;100882.17;1769167;80;20884;-66
2021/07/09 07:03:07;;;;;;;5.78;4.30;;;;;;;40.99;27.10;100883.03;1771809;80;21094;-66
2021/07/09 07:05:34;;;;;;;4.85;4.10;;;;;;;41.22;27.23;100884.78;1772780;80;21090;-62
2021/07/09 07:08:19;;;;;;;6.72;4.85;;;;;;;41.27;26.50;100877.61;1771456;80;20976;-66
2021/07/09 07:10:46;;;;;;;6.67;4.25;;;;;;;41.07;27.08;100872.95;1770946;80;21788;-66
2021/07/09 07:13:12;;;;;;;6.75;4.15;;;;;;;41.10;27.61;100876.27;1771211;80;21501;-61
2021/07/09 07:15:42;;;;;;;4.78;4.15;;;;;;;41.23;26.79;100875.43;1752599;80;20970;-65
2021/07/09 07:18:10;;;;;;;5.37;4.12;;;;;;;41.32;26.83;100871.78;1772125;80;21922;-66
2021/07/09 07:20:39;;;;;;;5.62;4.78;;;;;;;41.45;26.61;100869.00;1772393;80;21058;-66
2021/07/09 07:23:06;;;;;;;6.75;4.85;;;;;;;41.39;26.61;100869.70;1772333;80;21130;-63
2021/07/09 07:25:33;;;;;;;5.60;4.03;;;;;;;41.18;27.14;100873.83;1770570;80;21136;-66
2021/07/09 07:28:01;;;;;;;6.87;4.35;;;;;;;41.20;26.70;100868.75;1770522;80;21058;-66
2021/07/09 07:30:28;;;;;;;6.33;4.55;;;;;;;41.10;27.18;100866.70;1771992;80;21089;-66
2021/07/09 07:32:54;;;;;;;7.28;4.58;;;;;;;41.03;27.46;100865.27;1772336;80;20991;-62
2021/07/09 07:35:21;;;;;;;5.47;4.42;;;;;;;41.09;26.78;100865.14;1770902;80;22308;-66
2021/07/09 07:37:48;;;;;;;5.67;4.60;;;;;;;40.96;27.08;100856.98;1771771;80;21074;-66
2021/07/09 07:40:17;;;;;;;6.30;4.50;;;;;;;40.79;27.71;100852.31;1770364;80;20971;-64
2021/07/09 07:42:44;;;;;;;8.65;4.53;;;;;;;40.88;27.29;100856.12;1769089;80;21046;-67
2021/07/09 07:45:11;;;;;;;5.10;4.50;;;;;;;40.83;28.21;100855.86;1769861;80;21267;-65
2021/07/09 07:47:39;;;;;;;4.92;4.37;;;;;;;41.04;29.23;100865.48;1770140;80;21792;-66
2021/07/09 07:50:06;;;;;;;6.20;4.30;;;;;;;41.31;28.27;100854.59;1769895;80;21501;-65
2021/07/09 07:52:33;;;;;;;6.05;4.75;;;;;;;41.55;28.08;100852.45;1769568;80;21002;-66
2021/07/09 07:54:59;;;;;;;5.72;4.45;;;;;;;41.84;26.71;100844.47;1771260;80;20995;-61
2021/07/09 07:57:27;;;;;;;5.47;4.65;;;;;;;41.92;26.41;100848.22;1771518;80;20963;-68
2021/07/09 07:59:54;;;;;;;5.90;4.47;;;;;;;41.99;26.12;100845.52;1771633;80;21154;-62
2021/07/09 08:02:21;;;;;;;5.15;4.53;;;;;;;41.69;26.15;100845.70;1771265;80;21537;-67
2021/07/09 08:04:47;;;;;;;5.33;4.40;;;;;;;41.70;25.53;100845.91;1772256;80;21498;-66
2021/07/09 08:07:15;;;;;;;5.83;4.72;;;;;;;41.84;25.81;100843.09;1768107;80;21109;-68
2021/07/09 08:09:43;;;;;;;5.70;4.85;;;;;;;42.07;25.96;100839.50;1772032;80;20991;-65
2021/07/09 08:12:10;;;;;;;6.90;4.92;;;;;;;41.99;25.02;100836.53;1772518;80;21080;-64
2021/07/09 08:14:38;;;;;;;7.08;5.25;;;;;;;41.61;25.92;100837.25;1767522;80;20973;-66
2021/07/09 08:17:05;;;;;;;7.78;5.35;;;;;;;41.50;25.30;100840.50;1770172;80;21041;-66
2021/07/09 08:19:32;;;;;;;5.65;4.62;;;;;;;41.35;25.30;100836.83;1771259;80;20994;-65
2021/07/09 08:21:58;;;;;;;5.62;4.58;;;;;;;41.18;26.28;100831.44;1772524;80;21575;-65
2021/07/09 08:24:25;;;;;;;5.95;4.62;;;;;;;41.35;26.61;100826.48;1770353;80;21893;-67
2021/07/09 08:26:52;;;;;;;5.25;4.37;;;;;;;41.52;26.72;100829.94;1772360;80;21081;-65
2021/07/09 08:29:18;;;;;;;5.92;5.12;;;;;;;41.74;25.30;100824.81;1764755;80;21016;-61
2021/07/09 08:31:45;;;;;;;6.58;4.67;;;;;;;41.83;24.97;100826.47;1762892;80;21010;-68
2021/07/09 08:34:11;;;;;;;6.47;4.92;;;;;;;41.53;24.80;100820.58;1762890;80;21595;-65
2021/07/09 08:36:38;;;;;;;6.50;4.92;;;;;;;41.14;25.71;100822.39;1761230;80;21138;-67
2021/07/09 08:39:05;;;;;;;5.10;4.62;;;;;;;40.99;26.36;100823.42;1763161;80;21085;-63
2021/07/09 08:41:33;;;;;;;6.12;4.90;;;;;;;40.98;26.43;100817.17;1761537;80;21021;-67
2021/07/09 08:44:00;;;;;;;5.80;5.20;;;;;;;41.27;25.70;100818.80;1766030;80;21073;-67
2021/07/09 08:46:27;;;;;;;7.58;5.70;;;;;;;41.56;25.62;100817.06;1759959;80;21522;-65
2021/07/09 08:48:54;;;;;;;6.15;5.55;;;;;;;41.39;24.94;100813.61;1764892;80;21094;-66
2021/07/09 08:51:21;;;;;;;5.62;5.03;;;;;;;41.05;25.94;100815.88;1759503;80;20998;-66
2021/07/09 08:53:47;;;;;;;5.80;5.20;;;;;;;41.03;26.25;100811.94;1760825;80;21109;-67
2021/07/09 08:56:15;;;;;;;5.35;4.80;;;;;;;41.17;25.60;100812.06;1765224;80;21781;-68
2021/07/09 08:58:42;;;;;;;7.08;5.45;;;;;;;41.21;25.78;100810.14;1762847;80;21662;-69
2021/07/09 09:01:08;;;;;;;5.90;5.35;;;;;;;41.11;25.59;100806.75;1767082;80;21115;-66
2021/07/09 09:03:35;;;;;;;6.92;5.30;;;;;;;40.97;26.15;100800.54;1728524;80;21543;-69
2021/07/09 09:06:02;;;;;;;6.50;5.60;;;;;;;41.07;26.31;100807.31;1785736;78;20970;-66
2021/07/09 09:08:32;;;;;;;7.53;5.92;;;;;;;40.84;25.29;100800.59;1785454;79;21412;-67
2021/07/09 09:10:59;;;;;;;6.00;5.40;;;;;;;40.47;26.76;100799.23;1788963;79;20977;-68
2021/07/09 09:13:31;;;;;;;6.78;6.08;;;;;;;40.37;26.62;100799.31;1792190;79;21082;-69
2021/07/09 09:16:10;;;;;;;6.42;5.83;;;;;;;40.35;26.91;100791.50;1788257;78;20977;-61
2021/07/09 09:18:47;;;;;;;7.03;5.72;;;;;;;40.20;28.05;100785.66;1789062;79;21680;-68
2021/07/09 09:21:21;;;;;;;6.53;5.83;;;;;;;40.04;27.61;100787.75;1787955;78;20973;-68
2021/07/09 09:23:54;;;;;;;7.08;6.20;;;;;;;39.96;27.25;100783.36;1755176;80;21049;-68
2021/07/09 09:26:49;;;;;;;8.83;5.78;;;;;;;40.23;27.58;100773.19;1776724;79;21144;-68
2021/07/09 09:29:36;;;;;;;7.35;5.90;;;;;;;40.67;27.08;100771.16;1759496;80;21547;-65
2021/07/09 09:32:10;;;;;;;7.17;6.00;;;;;;;40.88;26.24;100780.13;1785253;78;21109;-68
2021/07/09 09:34:45;;;;;;;6.50;5.83;;;;;;;40.45;26.56;100774.22;1788520;78;20912;-69
2021/07/09 09:37:23;;;;;;;8.15;6.08;;;;;;;40.65;27.10;100775.66;1787913;78;21100;-68
2021/07/09 09:39:49;;;;;;;6.33;5.28;;;;;;;40.72;26.79;100769.45;1789847;78;21140;-68
2021/07/09 09:42:22;;;;;;;6.50;5.55;;;;;;;40.47;26.37;100766.45;1784814;78;21091;-62
2021/07/09 09:45:00;;;;;;;6.67;6.00;;;;;;;39.99;25.54;100767.61;1788958;78;21079;-68
2021/07/09 09:47:30;;;;;;;7.05;5.58;;;;;;;39.30;25.05;100760.39;1787146;78;21058;-67
2021/07/09 09:49:58;;;;;;;6.07;5.47;;;;;;;38.71;24.79;100769.85;1789328;78;21476;-65
2021/07/09 09:52:43;;;;;;;7.08;5.28;;;;;;;38.16;25.72;100771.89;1785210;78;22227;-67
2021/07/09 09:55:17;;;;;;;6.55;5.35;;;;;;;38.03;25.99;100764.99;1792395;78;21472;-68
2021/07/09 09:57:44;;;;;;;9.13;5.92;;;;;;;38.05;26.47;100761.36;1781616;78;21010;-60
2021/07/09 10:00:25;;;;;;;6.85;6.15;;;;;;;37.92;26.27;100757.41;1787207;78;21084;-66
2021/07/09 10:02:52;;;;;;;5.50;4.97;;;;;;;38.00;28.59;100753.45;1787044;78;21046;-65
2021/07/09 10:05:19;;;;;;;6.90;6.25;;;;;;;38.26;27.49;100743.28;1763883;80;21770;-62
2021/07/09 10:07:46;;;;;;;7.58;5.40;;;;;;;38.41;26.47;100745.16;1767349;80;21476;-62
2021/07/09 10:10:15;;;;;;;6.20;5.55;;;;;;;38.57;26.67;100747.24;1763091;80;21006;-66
2021/07/09 10:12:42;;;;;;;6.42;5.80;;;;;;;38.48;25.96;100745.87;1762478;80;21116;-65
2021/07/09 10:15:11;;;;;;;6.85;5.90;;;;;;;38.43;26.46;100748.33;1765772;80;21047;-61
2021/07/09 10:17:38;;;;;;;6.70;5.17;;;;;;;38.36;26.60;100734.00;1767479;80;21121;-65
2021/07/09 10:20:07;;;;;;;8.73;5.50;;;;;;;38.29;27.39;100742.00;1766960;80;21643;-62
2021/07/09 10:22:34;;;;;;;7.28;5.20;;;;;;;38.05;26.44;100746.38;1754655;80;21007;-67
2021/07/09 10:25:01;;;;;;;5.92;5.20;;;;;;;37.66;26.90;100741.66;1777111;80;21674;-66
2021/07/09 10:27:27;;;;;;;7.62;5.70;;;;;;;37.58;27.40;100739.92;1776374;80;21058;-64
2021/07/09 10:29:54;;;;;;;6.62;5.90;;;;;;;37.73;28.51;100740.45;1777317;80;22076;-64
2021/07/09 10:32:38;;;;;;;6.45;5.50;;;;;;;38.22;26.94;100730.96;1775939;80;21070;-59
2021/07/09 10:35:35;;;;;;;6.83;6.03;;;;;;;38.49;27.50;100734.61;1776425;80;20884;-60
2021/07/09 10:38:14;;;;;;;6.35;5.65;;;;;;;38.88;27.34;100731.27;1776163;80;21034;-62
2021/07/09 10:40:42;;;;;;;7.67;5.70;;;;;;;39.10;25.66;100730.26;1771744;80;21243;-64
2021/07/09 10:43:10;;;;;;;9.60;6.25;;;;;;;38.99;26.87;100719.76;1776729;80;21133;-63
2021/07/09 10:45:39;;;;;;;7.07;5.40;;;;;;;39.05;27.11;100722.37;1773068;80;20994;-64
2021/07/09 10:48:11;;;;;;;7.62;5.58;;;;;;;38.83;27.79;100726.13;1776421;80;21049;-63
2021/07/09 10:50:52;;;;;;;9.85;6.08;;;;;;;38.27;27.08;100725.25;1773723;80;21019;-64
2021/07/09 10:53:23;;;;;;;7.40;6.35;;;;;;;38.10;29.63;100722.38;1776958;80;21066;-61
2021/07/09 10:56:05;;;;;;;7.80;5.95;;;;;;;38.24;29.34;100716.43;1775391;80;20983;-62
2021/07/09 10:58:44;;;;;;;7.28;6.50;;;;;;;38.53;28.67;100709.61;1776818;80;20936;-63
2021/07/09 11:01:18;;;;;;;10.72;6.33;;;;;;;38.62;29.31;100713.45;1772560;80;21038;-62
2021/07/09 11:04:09;;;;;;;6.62;5.70;;;;;;;38.47;29.18;100708.33;1785635;78;21013;-64
2021/07/09 11:06:41;;;;;;;7.35;6.22;;;;;;;38.30;28.30;100712.28;1789702;79;20990;-66
2021/07/09 11:09:13;;;;;;;8.25;5.75;;;;;;;38.24;28.00;100706.90;1788752;79;20957;-66
2021/07/09 11:11:49;;;;;;;6.80;6.12;;;;;;;37.85;29.38;100704.73;1785054;78;20986;-66
2021/07/09 11:14:20;;;;;;;6.83;6.15;;;;;;;38.01;29.96;100700.61;1758726;80;20915;-64
2021/07/09 11:16:58;;;;;;;9.95;5.50;;;;;;;38.28;28.79;100695.50;1769660;80;20892;-63
2021/07/09 11:19:22;;;;;;;6.42;5.67;;;;;;;38.03;28.61;100695.58;1790800;78;20951;-66
2021/07/09 11:21:54;;;;;;;6.13;5.53;;;;;;;38.04;29.18;100691.73;1759779;80;21819;-66
2021/07/09 11:24:26;;;;;;;5.75;5.25;;;;;;;38.63;28.94;100683.69;1789612;79;21427;-64
2021/07/09 11:26:59;;;;;;;5.75;5.15;;;;;;;38.59;28.66;100674.09;1790043;78;20913;-64
2021/07/09 11:29:35;;;;;;;6.87;5.67;;;;;;;38.54;28.39;100675.77;1790030;78;20981;-65